Romoe Maersk — OXLC2 — position and weather

sailwx.info

Track history (hours):
 
Tides and Currents Weather Stations Pressure Air Temp Water Temp Dewpoint Dewpoint Depression Visibility Wind Speed Wind Dir Waves Ship Positions

Romoe Maersk

Last reported at 2017-Mar-24 11:31 UTC. Time now 2017-Mar-27 00:52 UTC.
Position N 01°14' E 103°49'.

Length 171 m; draft 10.7 m.

Type: Ship. MMSI: 220209000.

Date/timePositionNaut miles runAvg speedWind from/ knotsBaromVisibWave heightAir tempDewpointWater temp
2017-Mar-24 11:31N 01°14' E 103°49'0 0.0
2017-Mar-23 11:22N 01°14' E 103°49'0 0.1
2017-Mar-23 10:26N 01°14' E 103°49'2 1.9
2017-Mar-23 09:33N 01°14' E 103°47'6 5.7
2017-Mar-23 08:33N 01°18' E 103°43'0 0.0
2017-Mar-23 07:33N 01°18' E 103°43'0 0.0
2017-Mar-23 06:33N 01°18' E 103°43'0 0.0
2017-Mar-23 05:33N 01°18' E 103°43'0 0.0
2017-Mar-23 04:33N 01°18' E 103°43'0 0.0
2017-Mar-23 03:33N 01°18' E 103°43'0 0.0
2017-Mar-23 02:33N 01°18' E 103°43'0 0.0
2017-Mar-23 01:33N 01°18' E 103°43'0 0.0
2017-Mar-23 00:33N 01°18' E 103°43'0 0.0
2017-Mar-22 23:33N 01°18' E 103°43'0 0.0
2017-Mar-22 22:33N 01°18' E 103°43'0 0.0
2017-Mar-22 21:33N 01°18' E 103°43'0 0.0
2017-Mar-22 20:33N 01°18' E 103°43'0 0.0
2017-Mar-22 19:33N 01°18' E 103°43'0 0.0
2017-Mar-22 18:33N 01°18' E 103°43'0 0.0
2017-Mar-22 17:33N 01°18' E 103°43'0 0.0
2017-Mar-22 16:33N 01°18' E 103°43'0 0.0
2017-Mar-22 15:33N 01°18' E 103°43'0 0.0
2017-Mar-22 14:33N 01°18' E 103°43'0 0.0
2017-Mar-22 13:33N 01°18' E 103°43'0 0.0
2017-Mar-22 12:33N 01°18' E 103°43'0 0.0
2017-Mar-22 11:33N 01°18' E 103°43'0 0.0
2017-Mar-22 10:33N 01°18' E 103°43'0 0.0
2017-Mar-22 09:33N 01°18' E 103°43'0 0.0
2017-Mar-22 08:33N 01°18' E 103°43'0 0.0
2017-Mar-22 07:33N 01°18' E 103°43'0 0.0
2017-Mar-22 06:33N 01°18' E 103°43'0 0.0
2017-Mar-22 05:33N 01°18' E 103°43'0 0.0
2017-Mar-22 04:33N 01°18' E 103°43'0 0.0
2017-Mar-22 03:33N 01°18' E 103°43'2 1.8
2017-Mar-22 02:33N 01°17' E 103°45'5 5.3
2017-Mar-22 01:33N 01°13' E 103°41'2 2.1
2017-Mar-22 00:33N 01°13' E 103°39'0 0.1
2017-Mar-21 23:21N 01°13' E 103°39'0 0.3
2017-Mar-21 22:33N 01°13' E 103°39'  
2017-Mar-18 09:24N 01°14' E 103°34'1 1.0
2017-Mar-18 08:33N 01°15' E 103°35'0 0.1
2017-Mar-18 07:22N 01°15' E 103°35'0 0.0
2017-Mar-18 06:33N 01°15' E 103°35'0 0.1
2017-Mar-18 02:27N 01°15' E 103°34'0 0.0
2017-Mar-18 01:33N 01°15' E 103°34'0 0.0
2017-Mar-18 00:20N 01°15' E 103°34'0 0.1
2017-Mar-17 23:32N 01°15' E 103°34'0 0.0
2017-Mar-17 22:33N 01°15' E 103°34'0 0.1
2017-Mar-17 21:31N 01°15' E 103°35'0 0.0
2017-Mar-17 20:33N 01°15' E 103°35'0 0.1
2017-Mar-17 19:33N 01°15' E 103°35'0 0.0
2017-Mar-17 18:33N 01°15' E 103°35'0 0.1
2017-Mar-17 17:20N 01°15' E 103°35'0 0.1
2017-Mar-17 16:33N 01°15' E 103°35'0 0.0
2017-Mar-17 11:15N 01°15' E 103°34'0 0.0
2017-Mar-17 10:33N 01°15' E 103°34'0 0.0
2017-Mar-17 09:33N 01°15' E 103°34'0 0.1
2017-Mar-17 07:33N 01°15' E 103°35'0 0.1
2017-Mar-17 05:20N 01°15' E 103°35'0 0.1
2017-Mar-17 04:33N 01°15' E 103°35'0 0.1
2017-Mar-17 00:33N 01°15' E 103°34'0 0.0
2017-Mar-16 23:32N 01°15' E 103°34'0 0.1
2017-Mar-16 22:32N 01°15' E 103°34'0 0.1
2017-Mar-16 21:33N 01°15' E 103°34'0 0.1
2017-Mar-16 20:33N 01°15' E 103°35'0 0.1
2017-Mar-16 19:33N 01°15' E 103°35'0 0.1
2017-Mar-16 18:33N 01°15' E 103°35'0 0.0
2017-Mar-16 17:27N 01°15' E 103°35'0 0.1
2017-Mar-16 16:22N 01°15' E 103°35'0 0.0
2017-Mar-16 15:33N 01°15' E 103°35'1 0.0
2017-Mar-15 22:18N 01°15' E 103°34'0 0.0
2017-Mar-15 20:32N 01°15' E 103°34'0 0.0
2017-Mar-15 19:33N 01°15' E 103°34'0 0.1
2017-Mar-15 18:10N 01°15' E 103°34'1 0.1
2017-Mar-15 05:18N 01°15' E 103°35'0 0.3
2017-Mar-15 04:30N 01°15' E 103°35'  
Track history (hours):
 
Tides and Currents Weather Stations Pressure Air Temp Water Temp Dewpoint Dewpoint Depression Visibility Wind Speed Wind Dir Waves Ship Positions

Romoe Maersk

Last reported at 2017-Mar-24 11:31 UTC. Time now 2017-Mar-27 00:52 UTC.
Position N 01°14' E 103°49'.

Length 171 m; draft 10.7 m.

Type: Ship. MMSI: 220209000.

Date/timePositionNaut miles runAvg speedWind from/ knotsBaromVisibWave heightAir tempDewpointWater temp
2017-Mar-24 11:31N 01°14' E 103°49'0 0.0
2017-Mar-23 11:22N 01°14' E 103°49'0 0.1
2017-Mar-23 10:26N 01°14' E 103°49'2 1.9
2017-Mar-23 09:33N 01°14' E 103°47'6 5.7
2017-Mar-23 08:33N 01°18' E 103°43'0 0.0
2017-Mar-23 07:33N 01°18' E 103°43'0 0.0
2017-Mar-23 06:33N 01°18' E 103°43'0 0.0
2017-Mar-23 05:33N 01°18' E 103°43'0 0.0
2017-Mar-23 04:33N 01°18' E 103°43'0 0.0
2017-Mar-23 03:33N 01°18' E 103°43'0 0.0
2017-Mar-23 02:33N 01°18' E 103°43'0 0.0
2017-Mar-23 01:33N 01°18' E 103°43'0 0.0
2017-Mar-23 00:33N 01°18' E 103°43'0 0.0
2017-Mar-22 23:33N 01°18' E 103°43'0 0.0
2017-Mar-22 22:33N 01°18' E 103°43'0 0.0
2017-Mar-22 21:33N 01°18' E 103°43'0 0.0
2017-Mar-22 20:33N 01°18' E 103°43'0 0.0
2017-Mar-22 19:33N 01°18' E 103°43'0 0.0
2017-Mar-22 18:33N 01°18' E 103°43'0 0.0
2017-Mar-22 17:33N 01°18' E 103°43'0 0.0
2017-Mar-22 16:33N 01°18' E 103°43'0 0.0
2017-Mar-22 15:33N 01°18' E 103°43'0 0.0
2017-Mar-22 14:33N 01°18' E 103°43'0 0.0
2017-Mar-22 13:33N 01°18' E 103°43'0 0.0
2017-Mar-22 12:33N 01°18' E 103°43'0 0.0
2017-Mar-22 11:33N 01°18' E 103°43'0 0.0
2017-Mar-22 10:33N 01°18' E 103°43'0 0.0
2017-Mar-22 09:33N 01°18' E 103°43'0 0.0
2017-Mar-22 08:33N 01°18' E 103°43'0 0.0
2017-Mar-22 07:33N 01°18' E 103°43'0 0.0
2017-Mar-22 06:33N 01°18' E 103°43'0 0.0
2017-Mar-22 05:33N 01°18' E 103°43'0 0.0
2017-Mar-22 04:33N 01°18' E 103°43'0 0.0
2017-Mar-22 03:33N 01°18' E 103°43'2 1.8
2017-Mar-22 02:33N 01°17' E 103°45'5 5.3
2017-Mar-22 01:33N 01°13' E 103°41'2 2.1
2017-Mar-22 00:33N 01°13' E 103°39'0 0.1
2017-Mar-21 23:21N 01°13' E 103°39'0 0.3
2017-Mar-21 22:33N 01°13' E 103°39'  
2017-Mar-18 09:24N 01°14' E 103°34'1 1.0
2017-Mar-18 08:33N 01°15' E 103°35'0 0.1
2017-Mar-18 07:22N 01°15' E 103°35'0 0.0
2017-Mar-18 06:33N 01°15' E 103°35'0 0.1
2017-Mar-18 02:27N 01°15' E 103°34'0 0.0
2017-Mar-18 01:33N 01°15' E 103°34'0 0.0
2017-Mar-18 00:20N 01°15' E 103°34'0 0.1
2017-Mar-17 23:32N 01°15' E 103°34'0 0.0
2017-Mar-17 22:33N 01°15' E 103°34'0 0.1
2017-Mar-17 21:31N 01°15' E 103°35'0 0.0
2017-Mar-17 20:33N 01°15' E 103°35'0 0.1
2017-Mar-17 19:33N 01°15' E 103°35'0 0.0
2017-Mar-17 18:33N 01°15' E 103°35'0 0.1
2017-Mar-17 17:20N 01°15' E 103°35'0 0.1
2017-Mar-17 16:33N 01°15' E 103°35'0 0.0
2017-Mar-17 11:15N 01°15' E 103°34'0 0.0
2017-Mar-17 10:33N 01°15' E 103°34'0 0.0
2017-Mar-17 09:33N 01°15' E 103°34'0 0.1
2017-Mar-17 07:33N 01°15' E 103°35'0 0.1
2017-Mar-17 05:20N 01°15' E 103°35'0 0.1
2017-Mar-17 04:33N 01°15' E 103°35'0 0.1
2017-Mar-17 00:33N 01°15' E 103°34'0 0.0
2017-Mar-16 23:32N 01°15' E 103°34'0 0.1
2017-Mar-16 22:32N 01°15' E 103°34'0 0.1
2017-Mar-16 21:33N 01°15' E 103°34'0 0.1
2017-Mar-16 20:33N 01°15' E 103°35'0 0.1
2017-Mar-16 19:33N 01°15' E 103°35'0 0.1
2017-Mar-16 18:33N 01°15' E 103°35'0 0.0
2017-Mar-16 17:27N 01°15' E 103°35'0 0.1
2017-Mar-16 16:22N 01°15' E 103°35'0 0.0
2017-Mar-16 15:33N 01°15' E 103°35'1 0.0
2017-Mar-15 22:18N 01°15' E 103°34'0 0.0
2017-Mar-15 20:32N 01°15' E 103°34'0 0.0
2017-Mar-15 19:33N 01°15' E 103°34'0 0.1
2017-Mar-15 18:10N 01°15' E 103°34'1 0.1
2017-Mar-15 05:18N 01°15' E 103°35'0 0.3
2017-Mar-15 04:30N 01°15' E 103°35'  

Dump ship's entire track history